Time;durP1;ratioP1;P1;durP2;ratioP2;P2;SDS_P1;SDS_P2;PMS_P1;PMS_P2;Temp;Humidity;BMP_temperature;BMP_pressure;BME280_temperature;BME280_humidity;BME280_pressure;Samples;Min_cycle;Max_cycle;Signal;HPM_P1;HPM_P2
2023/03/27 00:01:15;;;;;;;16.40;8.80;;;;;;;7.29;86.72;96976.23;105349;1256;99161;-70
2023/03/27 00:03:43;;;;;;;13.80;6.90;;;;;;;7.28;86.65;96968.77;105338;1257;108143;-71
2023/03/27 00:06:16;;;;;;;13.30;6.30;;;;;;;7.30;86.87;96970.69;105249;1257;97947;-70
2023/03/27 00:08:45;;;;;;;12.70;6.20;;;;;;;7.28;86.64;96966.55;105233;1256;99545;-71
2023/03/27 00:11:13;;;;;;;10.50;5.80;;;;;;;7.31;87.06;96970.20;105163;1256;112025;-70
2023/03/27 00:13:40;;;;;;;10.80;6.30;;;;;;;7.30;87.07;96968.44;105315;1253;99033;-70
2023/03/27 00:16:22;;;;;;;18.50;8.50;;;;;;;7.29;86.86;96967.39;105249;1252;108576;-71
2023/03/27 00:18:57;;;;;;;17.80;9.60;;;;;;;7.29;86.85;96962.09;105204;1256;99097;-71
2023/03/27 00:21:29;;;;;;;21.40;10.30;;;;;;;7.32;86.75;96960.19;105261;1256;98434;-72
2023/03/27 00:23:56;;;;;;;18.10;9.40;;;;;;;7.38;86.95;96962.95;105216;1275;112188;-72
2023/03/27 00:26:23;;;;;;;23.00;9.80;;;;;;;7.40;86.62;96963.80;105207;1267;97925;-72
2023/03/27 00:28:51;;;;;;;23.40;12.30;;;;;;;7.38;86.58;96962.83;105064;1272;97932;-72
2023/03/27 00:31:18;;;;;;;15.50;8.40;;;;;;;7.38;86.62;96955.55;105165;1265;97889;-72
2023/03/27 00:33:45;;;;;;;13.90;7.90;;;;;;;7.39;86.76;96959.95;106157;1256;97882;-72
2023/03/27 00:36:14;;;;;;;12.80;7.10;;;;;;;7.39;86.61;96955.82;105503;1256;97945;-72
2023/03/27 00:38:42;;;;;;;11.90;5.50;;;;;;;7.35;86.37;96956.70;105338;1255;97963;-72
2023/03/27 00:41:09;;;;;;;13.10;6.30;;;;;;;7.34;86.66;96950.77;105277;1267;108616;-73
2023/03/27 00:43:43;;;;;;;11.70;5.10;;;;;;;7.36;86.32;96950.27;105081;1267;97948;-73
2023/03/27 00:46:13;;;;;;;11.00;5.50;;;;;;;7.26;86.27;96951.16;105145;1256;98023;-73
2023/03/27 00:48:45;;;;;;;11.40;5.60;;;;;;;7.20;86.51;96951.34;105226;1256;112127;-72
2023/03/27 00:51:15;;;;;;;12.20;5.80;;;;;;;7.20;86.18;96947.83;104846;1260;98783;-73
2023/03/27 00:53:44;;;;;;;11.40;5.70;;;;;;;7.24;86.61;96945.80;105280;1256;108390;-72
2023/03/27 00:56:15;;;;;;;10.00;6.60;;;;;;;7.22;86.25;96936.52;105166;1256;98530;-72
2023/03/27 00:59:15;;;;;;;14.40;7.20;;;;;;;7.20;86.26;96933.45;105150;1256;98818;-70
2023/03/27 01:01:44;;;;;;;14.10;7.10;;;;;;;7.25;86.42;96925.74;104442;1265;112143;-72
2023/03/27 01:04:11;;;;;;;15.70;8.50;;;;;;;7.37;87.15;96926.48;104611;1275;99637;-72
2023/03/27 01:06:41;;;;;;;23.20;10.90;;;;;;;7.46;86.98;96922.59;104447;1273;107658;-73
2023/03/27 01:09:08;;;;;;;19.80;11.00;;;;;;;7.46;86.16;96922.33;104306;1266;98105;-72
2023/03/27 01:11:41;;;;;;;23.60;11.10;;;;;;;7.44;86.33;96922.02;104652;1259;99207;-75
2023/03/27 01:14:36;;;;;;;20.70;10.20;;;;;;;7.37;86.25;96919.27;104424;1264;112918;-74
2023/03/27 01:17:33;;;;;;;19.00;11.40;;;;;;;7.32;87.08;96914.86;104500;1264;99305;-73
2023/03/27 01:20:02;;;;;;;16.60;9.60;;;;;;;7.37;87.37;96913.27;104636;1265;108886;-73
2023/03/27 01:22:45;;;;;;;14.70;8.20;;;;;;;7.32;86.79;96909.66;104648;1260;98013;-73
2023/03/27 01:25:39;;;;;;;17.90;11.00;;;;;;;7.19;87.56;96902.60;104625;1264;99226;-72
2023/03/27 01:28:12;;;;;;;12.70;7.70;;;;;;;7.07;88.13;96901.13;104596;1259;112262;-73
2023/03/27 01:30:55;;;;;;;17.80;8.90;;;;;;;6.98;89.03;96900.98;104633;1264;99146;-72
2023/03/27 01:33:50;;;;;;;17.50;8.90;;;;;;;6.95;88.90;96899.60;104454;1282;109343;-73
2023/03/27 01:36:26;;;;;;;18.00;11.00;;;;;;;6.96;89.25;96899.20;104643;1275;97911;-80
2023/03/27 01:39:30;;;;;;;14.40;7.90;;;;;;;6.96;89.18;96897.16;104901;1266;98412;-72
2023/03/27 01:42:13;;;;;;;12.20;6.80;;;;;;;6.93;89.64;96896.29;105351;1267;112471;-73
2023/03/27 01:44:48;;;;;;;15.00;8.10;;;;;;;6.91;89.42;96893.49;105263;1253;98311;-73
2023/03/27 01:47:46;;;;;;;13.40;7.60;;;;;;;6.88;89.66;96889.66;105073;1266;108579;-74
2023/03/27 01:50:26;;;;;;;13.70;7.80;;;;;;;6.87;89.50;96889.65;105275;1267;98027;-74
2023/03/27 01:53:03;;;;;;;12.20;7.50;;;;;;;6.88;89.43;96886.17;105282;1256;98047;-73
2023/03/27 01:55:36;;;;;;;12.20;7.30;;;;;;;6.87;89.57;96877.40;105306;1256;112116;-74
2023/03/27 01:58:12;;;;;;;15.60;8.30;;;;;;;6.82;89.68;96875.05;105228;1257;98903;-70
2023/03/27 02:00:51;;;;;;;17.40;9.30;;;;;;;6.78;89.92;96870.23;105159;1269;107882;-70
2023/03/27 02:03:40;;;;;;;18.30;10.10;;;;;;;6.79;90.11;96867.70;105295;1275;97928;-73
2023/03/27 02:06:11;;;;;;;16.50;9.40;;;;;;;6.79;90.04;96867.79;105314;1258;98424;-74
2023/03/27 02:09:00;;;;;;;15.40;10.50;;;;;;;6.81;90.36;96868.55;105146;1255;111079;-70
2023/03/27 02:11:32;;;;;;;17.80;10.10;;;;;;;6.85;90.47;96864.64;105135;1258;99201;-73
2023/03/27 02:14:05;;;;;;;20.20;11.30;;;;;;;6.86;89.94;96862.80;105317;1256;108569;-74
2023/03/27 02:16:41;;;;;;;24.90;12.10;;;;;;;6.90;89.97;96864.12;105285;1256;97909;-74
2023/03/27 02:19:13;;;;;;;21.00;11.50;;;;;;;6.93;90.04;96868.83;105067;1256;98334;-74
2023/03/27 02:21:40;;;;;;;23.00;11.70;;;;;;;7.06;90.23;96877.46;105278;1266;111700;-74
2023/03/27 02:24:07;;;;;;;16.40;10.10;;;;;;;7.16;89.70;96872.73;105285;1253;99209;-73
2023/03/27 02:26:35;;;;;;;18.80;11.50;;;;;;;7.24;89.89;96874.17;105256;1256;97923;-74
2023/03/27 02:29:22;;;;;;;20.70;11.40;;;;;;;7.30;89.86;96878.13;106116;1256;97842;-74
2023/03/27 02:32:24;;;;;;;21.10;12.20;;;;;;;7.33;89.43;96878.93;105140;1254;98194;-74
2023/03/27 02:35:14;;;;;;;18.80;11.30;;;;;;;7.28;89.09;96877.29;105078;1256;112252;-75
2023/03/27 02:37:53;;;;;;;20.70;12.60;;;;;;;7.24;89.34;96885.41;105181;1253;99059;-73
2023/03/27 02:40:23;;;;;;;25.20;14.00;;;;;;;7.26;89.68;96889.59;105207;1257;108105;-72
2023/03/27 02:42:56;;;;;;;25.40;15.30;;;;;;;7.26;89.55;96890.90;104885;1269;98012;-72
2023/03/27 02:45:31;;;;;;;27.80;15.90;;;;;;;7.29;89.39;96895.52;105140;1253;98387;-72
2023/03/27 02:48:09;;;;;;;27.30;15.20;;;;;;;7.33;89.36;96897.92;105061;1257;112651;-73
2023/03/27 02:51:08;;;;;;;29.80;16.40;;;;;;;7.32;89.12;96896.73;104959;1261;98220;-73
2023/03/27 02:53:46;;;;;;;30.40;17.00;;;;;;;7.32;88.86;96895.23;105278;1255;108441;-72
2023/03/27 02:56:16;;;;;;;31.40;16.80;;;;;;;7.34;89.04;96891.19;105296;1257;97946;-73
2023/03/27 02:58:52;;;;;;;34.40;17.30;;;;;;;7.40;89.21;96892.73;105234;1256;97975;-73
2023/03/27 03:01:21;;;;;;;31.30;17.00;;;;;;;7.40;89.41;96893.04;105273;1275;112153;-71
2023/03/27 03:04:16;;;;;;;31.50;17.50;;;;;;;7.44;89.26;96902.66;105217;1256;98923;-75
2023/03/27 03:06:44;;;;;;;32.20;17.80;;;;;;;7.47;88.95;96899.89;105082;1258;108367;-75
2023/03/27 03:09:13;;;;;;;34.50;18.70;;;;;;;7.45;88.99;96899.65;105132;1259;97927;-73
2023/03/27 03:11:52;;;;;;;34.10;18.40;;;;;;;7.32;89.21;96902.70;105188;1257;99101;-73
2023/03/27 03:14:23;;;;;;;34.00;18.20;;;;;;;7.33;89.93;96906.88;105079;1259;112176;-73
2023/03/27 03:16:50;;;;;;;36.90;19.30;;;;;;;7.36;89.60;96905.27;105220;1268;99051;-75
2023/03/27 03:19:17;;;;;;;34.80;19.10;;;;;;;7.33;89.67;96908.11;105019;1258;98946;-74
2023/03/27 03:21:48;;;;;;;33.00;18.30;;;;;;;7.26;89.29;96904.77;105040;1256;97981;-75
2023/03/27 03:24:16;;;;;;;34.90;20.00;;;;;;;7.19;89.71;96904.81;105170;1259;98688;-74
2023/03/27 03:26:44;;;;;;;37.20;20.50;;;;;;;7.15;89.96;96905.81;105182;1259;111296;-74
2023/03/27 03:29:11;;;;;;;36.90;20.00;;;;;;;7.14;89.97;96899.98;105143;1254;99222;-73
2023/03/27 03:31:41;;;;;;;39.50;21.70;;;;;;;7.05;90.45;96899.73;105166;1259;108463;-74
2023/03/27 03:34:15;;;;;;;40.00;21.10;;;;;;;6.97;90.84;96896.89;105008;1267;97935;-74
2023/03/27 03:36:43;;;;;;;37.20;21.70;;;;;;;6.96;91.03;96898.43;104935;1253;97852;-74
2023/03/27 03:39:11;;;;;;;31.90;19.00;;;;;;;6.95;91.28;96900.95;105106;1267;112142;-72
2023/03/27 03:41:38;;;;;;;35.00;19.30;;;;;;;6.93;91.37;96904.76;105003;1259;98597;-74
2023/03/27 03:44:05;;;;;;;34.10;19.50;;;;;;;6.97;91.30;96905.21;105032;1259;97928;-73
2023/03/27 03:46:32;;;;;;;33.80;20.00;;;;;;;6.92;91.63;96905.69;105117;1259;97934;-69
2023/03/27 03:48:59;;;;;;;29.00;16.50;;;;;;;6.93;92.01;96913.11;105044;1254;98006;-74
2023/03/27 03:51:27;;;;;;;30.60;16.00;;;;;;;6.95;91.45;96914.24;105025;1257;99271;-73
2023/03/27 03:53:54;;;;;;;27.00;14.60;;;;;;;6.94;91.98;96916.33;105063;1268;98012;-75
2023/03/27 03:56:21;;;;;;;30.00;15.90;;;;;;;6.89;91.80;96916.31;105077;1269;98453;-74
2023/03/27 03:58:48;;;;;;;25.60;15.10;;;;;;;6.95;91.53;96911.20;105122;1253;97958;-81
2023/03/27 04:01:19;;;;;;;27.40;14.90;;;;;;;6.99;91.83;96905.08;105237;1259;97892;-74
2023/03/27 04:03:47;;;;;;;25.80;14.30;;;;;;;6.98;91.23;96901.66;105294;1267;99208;-75
2023/03/27 04:06:19;;;;;;;21.80;12.80;;;;;;;7.01;91.71;96901.93;105150;1260;108792;-75
2023/03/27 04:08:47;;;;;;;24.80;13.90;;;;;;;7.00;91.07;96899.02;105298;1256;98085;-74
2023/03/27 04:11:14;;;;;;;22.60;13.80;;;;;;;7.03;91.29;96899.91;105239;1256;99254;-72
2023/03/27 04:13:41;;;;;;;22.40;13.50;;;;;;;7.05;91.07;96896.09;105268;1264;97985;-71
2023/03/27 04:16:08;;;;;;;23.60;13.00;;;;;;;7.05;91.28;96895.92;105159;1256;97983;-74
2023/03/27 04:18:38;;;;;;;22.70;13.20;;;;;;;7.10;91.60;96897.42;105240;1267;97936;-74
2023/03/27 04:21:13;;;;;;;28.70;14.80;;;;;;;7.04;90.97;96899.27;105181;1256;97928;-74
2023/03/27 04:23:47;;;;;;;31.50;15.30;;;;;;;7.02;90.96;96894.51;105201;1256;99203;-73
2023/03/27 04:26:14;;;;;;;25.80;13.50;;;;;;;7.00;90.80;96896.00;105181;1269;112265;-73
2023/03/27 04:28:42;;;;;;;28.00;14.30;;;;;;;6.94;91.09;96898.36;105229;1264;99492;-70
2023/03/27 04:31:09;;;;;;;27.10;13.60;;;;;;;6.90;91.40;96896.83;105241;1256;98312;-73
2023/03/27 04:33:38;;;;;;;21.60;12.80;;;;;;;6.98;91.49;96899.48;105197;1256;99231;-73
2023/03/27 04:36:06;;;;;;;22.20;12.70;;;;;;;7.07;91.55;96898.48;105627;1256;98418;-74
2023/03/27 04:38:35;;;;;;;21.50;12.80;;;;;;;7.13;91.49;96900.98;105075;1266;112190;-76
2023/03/27 04:41:04;;;;;;;21.20;11.90;;;;;;;7.19;90.98;96900.94;105206;1256;99385;-74
2023/03/27 04:43:31;;;;;;;19.70;12.20;;;;;;;7.16;90.86;96898.98;105084;1269;108616;-77
2023/03/27 04:45:58;;;;;;;22.40;13.70;;;;;;;7.13;91.19;96899.58;104948;1257;98030;-76
2023/03/27 04:48:25;;;;;;;17.70;11.00;;;;;;;7.14;91.32;96906.39;105063;1256;98043;-76
2023/03/27 04:50:52;;;;;;;21.30;12.90;;;;;;;7.09;90.91;96905.41;104709;1258;494655;-77
2023/03/27 04:53:22;;;;;;;21.80;12.90;;;;;;;7.06;91.15;96907.80;105063;1256;97943;-76
2023/03/27 04:55:51;;;;;;;21.30;12.50;;;;;;;7.06;91.63;96907.88;104989;1258;108076;-77
2023/03/27 04:58:18;;;;;;;20.90;12.30;;;;;;;7.07;90.86;96905.74;105007;1256;97935;-76
2023/03/27 05:00:49;;;;;;;22.00;12.90;;;;;;;7.10;91.23;96905.27;105031;1275;99222;-76
2023/03/27 05:03:19;;;;;;;24.70;13.50;;;;;;;7.05;90.67;96904.89;105081;1261;112435;-74
2023/03/27 05:05:51;;;;;;;19.70;11.60;;;;;;;7.02;90.72;96909.31;105058;1256;99844;-76
2023/03/27 05:08:18;;;;;;;19.70;11.00;;;;;;;7.02;90.73;96906.02;105043;1265;107825;-77
2023/03/27 05:10:45;;;;;;;19.50;11.00;;;;;;;7.01;90.68;96908.39;105055;1272;97896;-76
2023/03/27 05:13:13;;;;;;;17.20;10.60;;;;;;;7.04;91.06;96909.27;105101;1254;97925;-76
2023/03/27 05:15:40;;;;;;;17.20;10.60;;;;;;;7.09;91.05;96911.19;105001;1273;99272;-78
2023/03/27 05:18:07;;;;;;;16.80;10.30;;;;;;;7.12;90.60;96918.70;105083;1257;97979;-75
2023/03/27 05:20:36;;;;;;;16.30;9.40;;;;;;;7.14;90.64;96914.54;105298;1257;98024;-75
2023/03/27 05:23:03;;;;;;;16.40;9.80;;;;;;;7.15;90.46;96921.52;105098;1256;99244;-75
2023/03/27 05:25:31;;;;;;;13.70;9.10;;;;;;;7.22;90.59;96922.61;105064;1266;98031;-75
2023/03/27 05:27:59;;;;;;;14.00;8.20;;;;;;;7.20;90.24;96921.70;105212;1255;112476;-75
2023/03/27 05:30:27;;;;;;;13.50;8.40;;;;;;;7.13;89.95;96920.38;106166;1268;98186;-74
2023/03/27 05:32:57;;;;;;;13.90;8.40;;;;;;;7.08;90.43;96920.58;105066;1256;108583;-69
2023/03/27 05:35:27;;;;;;;14.40;8.50;;;;;;;7.03;90.28;96924.52;105178;1256;97909;-75
2023/03/27 05:37:56;;;;;;;17.80;9.00;;;;;;;6.96;90.67;96922.79;105203;1256;97967;-77
2023/03/27 05:40:25;;;;;;;14.30;9.00;;;;;;;6.86;90.49;96922.00;105131;1256;112269;-74
2023/03/27 05:42:55;;;;;;;16.60;9.40;;;;;;;6.85;90.68;96922.38;105326;1256;99224;-73
2023/03/27 05:45:23;;;;;;;15.80;9.70;;;;;;;6.84;90.77;96923.50;105265;1256;108707;-73
2023/03/27 05:47:51;;;;;;;17.30;10.00;;;;;;;6.85;91.00;96929.92;105075;1256;98575;-74
2023/03/27 05:50:21;;;;;;;17.30;10.00;;;;;;;6.88;90.49;96932.45;105350;1259;98332;-73
2023/03/27 05:52:58;;;;;;;17.70;10.30;;;;;;;6.87;90.88;96931.58;105029;1266;111690;-74
2023/03/27 05:55:26;;;;;;;15.40;9.70;;;;;;;6.88;90.87;96931.05;105124;1266;99418;-74
2023/03/27 05:57:54;;;;;;;21.00;10.60;;;;;;;6.90;91.03;96933.00;105190;1258;108447;-73
2023/03/27 06:00:25;;;;;;;16.10;9.50;;;;;;;6.94;90.89;96934.85;105056;1258;97906;-72
2023/03/27 06:02:55;;;;;;;17.30;10.20;;;;;;;6.97;90.92;96943.19;105281;1266;97912;-74
2023/03/27 06:05:23;;;;;;;16.30;10.20;;;;;;;6.94;90.67;96944.50;105143;1256;110921;-73
2023/03/27 06:07:51;;;;;;;17.00;9.10;;;;;;;6.93;90.69;96949.44;105171;1267;99231;-75
2023/03/27 06:10:21;;;;;;;17.30;9.20;;;;;;;6.85;90.79;96955.27;105037;1256;97928;-74
2023/03/27 06:12:48;;;;;;;16.60;10.00;;;;;;;6.77;91.14;96962.45;105205;1268;97938;-74
2023/03/27 06:15:15;;;;;;;16.40;10.10;;;;;;;6.69;91.26;96965.64;105153;1258;97989;-75
2023/03/27 06:17:45;;;;;;;16.10;9.50;;;;;;;6.73;91.42;96969.38;105199;1266;97912;-74
2023/03/27 06:20:14;;;;;;;18.90;11.80;;;;;;;6.76;91.54;96972.52;105201;1260;99470;-74
2023/03/27 06:22:47;;;;;;;20.30;12.10;;;;;;;6.82;91.16;96976.77;105264;1256;108651;-72
2023/03/27 06:25:15;;;;;;;18.20;10.80;;;;;;;6.90;91.03;96979.83;105136;1257;99177;-73
2023/03/27 06:27:46;;;;;;;15.90;10.10;;;;;;;6.98;91.07;96976.85;105221;1267;99111;-73
2023/03/27 06:30:16;;;;;;;17.20;9.40;;;;;;;7.03;90.43;96987.71;105206;1267;112298;-74
2023/03/27 06:32:44;;;;;;;18.70;11.20;;;;;;;7.04;90.29;96993.96;105018;1263;98087;-74
2023/03/27 06:35:13;;;;;;;17.10;10.10;;;;;;;7.14;90.55;96996.67;105080;1275;108236;-74
2023/03/27 06:37:41;;;;;;;18.40;10.40;;;;;;;7.20;90.04;96999.45;105165;1267;97959;-76
2023/03/27 06:40:09;;;;;;;16.70;10.30;;;;;;;7.22;89.98;96998.50;105135;1257;97974;-77
2023/03/27 06:42:37;;;;;;;17.80;11.40;;;;;;;7.28;90.60;97001.23;105127;1256;112049;-75
2023/03/27 06:45:05;;;;;;;16.70;9.80;;;;;;;7.36;90.31;97005.23;105622;1269;98604;-72
2023/03/27 06:47:34;;;;;;;16.00;10.20;;;;;;;7.39;90.12;97008.48;105254;1268;108610;-74
2023/03/27 06:50:13;;;;;;;16.00;9.80;;;;;;;7.43;90.35;97012.71;105253;1266;98859;-74
2023/03/27 06:52:40;;;;;;;16.20;9.50;;;;;;;7.41;89.47;97012.73;105306;1256;97910;-73
2023/03/27 06:55:09;;;;;;;17.30;11.30;;;;;;;7.28;89.18;97011.48;105182;1256;98820;-69
2023/03/27 06:57:45;;;;;;;17.70;10.80;;;;;;;7.26;89.69;97015.09;105096;1275;99153;-72
2023/03/27 07:00:16;;;;;;;20.70;11.20;;;;;;;7.32;90.07;97019.02;105050;1256;107634;-73
2023/03/27 07:02:44;;;;;;;17.90;11.40;;;;;;;7.39;89.82;97020.63;105183;1275;98708;-73
2023/03/27 07:05:12;;;;;;;17.90;10.70;;;;;;;7.47;89.52;97024.16;105215;1256;98610;-73
2023/03/27 07:07:39;;;;;;;15.00;9.50;;;;;;;7.45;88.33;97031.52;105200;1267;112208;-74
2023/03/27 07:10:08;;;;;;;18.80;11.00;;;;;;;7.46;88.78;97034.23;105075;1260;99116;-72
2023/03/27 07:12:35;;;;;;;16.40;10.20;;;;;;;7.53;88.72;97034.59;105030;1268;108370;-72
2023/03/27 07:15:05;;;;;;;18.10;11.30;;;;;;;7.62;88.67;97039.03;105000;1256;97887;-73
2023/03/27 07:17:33;;;;;;;15.60;8.80;;;;;;;7.70;88.50;97035.95;105291;1254;97918;-71
2023/03/27 07:20:14;;;;;;;13.50;8.40;;;;;;;7.70;88.21;97034.73;105195;1256;112434;-74
2023/03/27 07:22:44;;;;;;;14.60;9.80;;;;;;;7.70;87.96;97040.88;105214;1256;97970;-72
2023/03/27 07:25:11;;;;;;;14.30;8.70;;;;;;;7.63;87.81;97040.79;105220;1257;107805;-67
2023/03/27 07:27:38;;;;;;;13.80;9.20;;;;;;;7.65;88.03;97041.71;105242;1256;97924;-74
2023/03/27 07:30:09;;;;;;;13.30;8.70;;;;;;;7.71;88.13;97048.85;105008;1266;97999;-74
2023/03/27 07:32:41;;;;;;;15.80;10.10;;;;;;;7.75;87.78;97052.42;105145;1261;112262;-74
2023/03/27 07:35:09;;;;;;;12.60;8.80;;;;;;;7.78;87.52;97053.30;105102;1266;99235;-73
2023/03/27 07:37:37;;;;;;;13.30;9.50;;;;;;;7.80;87.45;97059.59;105145;1267;106558;-74
2023/03/27 07:40:12;;;;;;;15.40;9.20;;;;;;;7.82;86.89;97065.03;105528;1264;97915;-75
2023/03/27 07:42:44;;;;;;;13.60;8.80;;;;;;;7.82;86.38;97064.04;104977;1253;98412;-74
2023/03/27 07:45:12;;;;;;;11.60;7.50;;;;;;;7.73;86.20;97064.52;105191;1259;111118;-75
2023/03/27 07:47:41;;;;;;;11.40;7.30;;;;;;;7.66;86.35;97068.24;105264;1256;99158;-75
2023/03/27 07:50:17;;;;;;;17.40;10.80;;;;;;;7.53;86.61;97071.49;105007;1266;107189;-74
2023/03/27 07:52:45;;;;;;;17.20;10.90;;;;;;;7.52;87.53;97071.23;105200;1256;97922;-74
2023/03/27 07:55:16;;;;;;;18.50;10.90;;;;;;;7.60;88.15;97076.27;105112;1257;97979;-73
2023/03/27 07:57:48;;;;;;;14.50;8.70;;;;;;;7.61;87.28;97076.05;105235;1256;111607;-74
2023/03/27 08:00:28;;;;;;;15.60;9.80;;;;;;;7.58;87.22;97077.96;105147;1257;99413;-74
2023/03/27 08:03:05;;;;;;;16.40;11.10;;;;;;;7.59;87.53;97079.05;105151;1256;108660;-74
2023/03/27 08:05:33;;;;;;;10.00;5.80;;;;;;;7.69;87.55;97082.67;105237;1267;97914;-73
2023/03/27 08:08:00;;;;;;;17.60;9.70;;;;;;;7.61;86.48;97084.09;105316;1257;97945;-74
2023/03/27 08:10:27;;;;;;;15.80;10.70;;;;;;;7.55;86.79;97085.66;105105;1257;99261;-75
2023/03/27 08:12:54;;;;;;;16.50;10.70;;;;;;;7.43;86.79;97085.06;105266;1267;99349;-73
2023/03/27 08:15:23;;;;;;;16.40;9.70;;;;;;;7.34;86.28;97086.55;105160;1267;97999;-72
2023/03/27 08:17:53;;;;;;;16.40;10.60;;;;;;;7.22;86.22;97090.36;105285;1256;98001;-75
2023/03/27 08:20:22;;;;;;;15.60;10.10;;;;;;;7.17;86.11;97100.21;104906;1267;99164;-74
2023/03/27 08:22:51;;;;;;;20.70;11.30;;;;;;;7.03;85.71;97100.73;105255;1266;112213;-72
2023/03/27 08:25:21;;;;;;;15.50;9.10;;;;;;;6.90;86.32;97106.56;105286;1267;99041;-73
2023/03/27 08:27:49;;;;;;;15.20;9.80;;;;;;;6.71;86.04;97113.34;105070;1256;109538;-74
2023/03/27 08:30:16;;;;;;;13.60;9.10;;;;;;;6.56;86.19;97124.80;105244;1257;99116;-75
2023/03/27 08:32:43;;;;;;;15.80;9.50;;;;;;;6.43;86.22;97124.56;105081;1268;99978;-71
2023/03/27 08:35:11;;;;;;;20.20;11.90;;;;;;;6.44;86.83;97133.95;105029;1264;97988;-74
2023/03/27 08:37:40;;;;;;;16.70;10.70;;;;;;;6.52;87.25;97141.42;105176;1257;98004;-74
2023/03/27 08:40:18;;;;;;;19.20;10.40;;;;;;;6.54;86.93;97150.07;105275;1256;108557;-75
2023/03/27 08:42:49;;;;;;;16.70;10.50;;;;;;;6.46;86.29;97161.10;105310;1266;97918;-75
2023/03/27 08:45:22;;;;;;;15.60;9.90;;;;;;;6.28;85.54;97165.00;105125;1266;99060;-75
2023/03/27 08:48:20;;;;;;;9.50;6.20;;;;;;;6.09;85.34;97176.05;105133;1267;112952;-75
2023/03/27 08:51:18;;;;;;;7.80;5.40;;;;;;;5.79;84.12;97184.13;105158;1256;99102;-75
2023/03/27 08:54:05;;;;;;;6.30;4.50;;;;;;;5.55;84.13;97199.39;105266;1264;107514;-74
2023/03/27 08:56:33;;;;;;;6.60;4.90;;;;;;;5.32;83.49;97204.39;105078;1274;97925;-74
2023/03/27 08:59:00;;;;;;;7.80;4.30;;;;;;;5.16;83.82;97211.78;105078;1267;98330;-74
2023/03/27 09:01:45;;;;;;;10.30;6.20;;;;;;;5.03;84.11;97220.80;105233;1256;97937;-72
2023/03/27 09:04:47;;;;;;;9.10;5.60;;;;;;;4.88;84.01;97233.08;105167;1264;98773;-74
2023/03/27 09:07:27;;;;;;;10.30;5.60;;;;;;;4.65;84.16;97240.98;105094;1267;108554;-73
2023/03/27 09:10:16;;;;;;;11.00;5.20;;;;;;;4.46;84.47;97246.05;104929;1257;97963;-73
2023/03/27 09:13:26;;;;;;;75.30;24.70;;;;;;;4.23;83.83;97257.42;104932;1269;99380;-73
2023/03/27 09:16:05;;;;;;;18.80;9.30;;;;;;;4.01;83.68;97262.31;104971;1273;111200;-74
2023/03/27 09:18:32;;;;;;;27.70;12.90;;;;;;;3.84;83.60;97279.91;105146;1266;99242;-73
2023/03/27 09:21:14;;;;;;;29.40;13.60;;;;;;;3.72;83.61;97280.71;104955;1266;97916;-74
2023/03/27 09:23:45;;;;;;;15.90;8.50;;;;;;;3.60;84.03;97285.91;105136;1256;97918;-75
2023/03/27 09:26:27;;;;;;;21.40;9.90;;;;;;;3.50;83.96;97284.39;105079;1266;99206;-73
2023/03/27 09:29:16;;;;;;;14.50;6.90;;;;;;;3.37;84.12;97296.33;105223;1268;112808;-73
2023/03/27 09:31:48;;;;;;;18.70;10.20;;;;;;;3.29;83.91;97303.25;105316;1266;97983;-72
2023/03/27 09:34:23;;;;;;;12.00;6.10;;;;;;;3.17;84.27;97309.86;105226;1267;108145;-72
2023/03/27 09:36:50;;;;;;;14.10;8.20;;;;;;;3.11;84.41;97317.65;105166;1265;97937;-72
2023/03/27 09:39:26;;;;;;;14.20;8.30;;;;;;;3.06;84.86;97325.10;105181;1257;99083;-73
2023/03/27 09:42:18;;;;;;;5.50;3.70;;;;;;;3.05;84.74;97335.83;105071;1275;112213;-72
2023/03/27 09:44:50;;;;;;;5.90;3.30;;;;;;;2.90;83.44;97341.17;105288;1254;99179;-72
2023/03/27 09:47:33;;;;;;;4.90;3.00;;;;;;;2.78;82.81;97351.41;105309;1257;108674;-71
2023/03/27 09:50:45;;;;;;;3.20;2.30;;;;;;;2.59;82.57;97355.38;105137;1256;97899;-72
2023/03/27 09:53:24;;;;;;;3.30;2.40;;;;;;;2.36;82.52;97358.68;104543;1273;98101;-72
2023/03/27 09:55:57;;;;;;;4.90;3.40;;;;;;;2.24;82.53;97373.77;104715;1272;111678;-71
2023/03/27 09:58:50;;;;;;;5.00;3.20;;;;;;;2.16;82.70;97377.27;104675;1282;98139;-71
2023/03/27 10:01:26;;;;;;;5.10;3.20;;;;;;;2.15;83.07;97383.65;104690;1263;108767;-71
2023/03/27 10:03:56;;;;;;;5.20;2.40;;;;;;;2.09;82.57;97380.54;104748;1264;97947;-71
2023/03/27 10:06:29;;;;;;;3.40;2.10;;;;;;;2.09;82.58;97391.35;104684;1271;97908;-72
2023/03/27 10:09:05;;;;;;;4.20;2.10;;;;;;;2.14;82.21;97386.69;104681;1273;112252;-72
2023/03/27 10:11:35;;;;;;;4.40;2.10;;;;;;;2.13;82.08;97390.75;104611;1273;98335;-73
2023/03/27 10:14:12;;;;;;;3.00;1.70;;;;;;;2.09;81.67;97387.46;104565;1272;108240;-72
2023/03/27 10:16:41;;;;;;;2.90;2.20;;;;;;;2.05;81.59;97390.05;104655;1273;99425;-72
2023/03/27 10:19:29;;;;;;;3.90;2.50;;;;;;;2.07;82.47;97384.95;104614;1272;98086;-72
2023/03/27 10:22:03;;;;;;;5.50;2.30;;;;;;;2.10;82.24;97387.29;104664;1273;112401;-72
2023/03/27 10:24:33;;;;;;;1.40;1.20;;;;;;;2.07;81.64;97393.92;104785;1273;99256;-72
2023/03/27 10:27:10;;;;;;;4.80;2.60;;;;;;;2.09;81.49;97397.35;104747;1282;108532;-72
2023/03/27 10:29:46;;;;;;;4.50;2.80;;;;;;;2.17;81.45;97400.77;104973;1263;97990;-72
2023/03/27 10:32:44;;;;;;;2.70;1.90;;;;;;;2.23;81.07;97398.75;105244;1258;97989;-72
2023/03/27 10:35:40;;;;;;;3.30;2.10;;;;;;;2.27;80.67;97397.13;105116;1257;111275;-72
2023/03/27 10:38:22;;;;;;;3.70;2.30;;;;;;;2.30;80.65;97397.16;105012;1267;99224;-72
2023/03/27 10:40:55;;;;;;;4.00;3.30;;;;;;;2.31;80.27;97395.30;105028;1258;106478;-75
2023/03/27 10:43:38;;;;;;;5.70;3.50;;;;;;;2.33;80.29;97390.83;105240;1266;98476;-71
2023/03/27 10:46:25;;;;;;;3.30;2.40;;;;;;;2.42;79.94;97397.11;104877;1261;98436;-75
2023/03/27 10:49:20;;;;;;;5.70;3.90;;;;;;;2.52;79.72;97404.27;105211;1267;112337;-70
2023/03/27 10:51:50;;;;;;;4.40;3.10;;;;;;;2.62;79.79;97413.21;105226;1267;99348;-70
2023/03/27 10:54:29;;;;;;;7.30;3.90;;;;;;;2.63;78.82;97416.77;104979;1267;108643;-70
2023/03/27 10:57:07;;;;;;;7.00;3.60;;;;;;;2.53;78.32;97424.21;105678;1256;98630;-70
2023/03/27 10:59:43;;;;;;;6.00;3.60;;;;;;;2.49;78.78;97426.32;105203;1259;97969;-70
2023/03/27 11:02:16;;;;;;;6.50;2.90;;;;;;;2.45;78.67;97428.25;105103;1266;112174;-70
2023/03/27 11:05:01;;;;;;;3.90;3.10;;;;;;;2.40;78.38;97430.88;104961;1259;99584;-70
2023/03/27 11:07:36;;;;;;;4.90;2.80;;;;;;;2.38;78.64;97435.27;105154;1267;108727;-71
2023/03/27 11:10:21;;;;;;;5.70;3.90;;;;;;;2.35;78.40;97438.20;105027;1264;99095;-70
2023/03/27 11:12:56;;;;;;;8.00;4.30;;;;;;;2.39;79.03;97442.45;105056;1267;99117;-70
2023/03/27 11:15:38;;;;;;;5.70;3.60;;;;;;;2.45;78.46;97446.70;105162;1256;112373;-70
2023/03/27 11:18:21;;;;;;;5.10;3.20;;;;;;;2.51;77.80;97451.94;105205;1257;99240;-70
2023/03/27 11:20:55;;;;;;;4.60;3.00;;;;;;;2.56;77.83;97463.06;105187;1257;108650;-70
2023/03/27 11:23:46;;;;;;;5.20;2.80;;;;;;;2.54;77.16;97465.09;104818;1254;98018;-69
2023/03/27 11:26:17;;;;;;;5.60;2.40;;;;;;;2.56;77.82;97472.27;105098;1257;98316;-70
2023/03/27 11:28:51;;;;;;;7.00;3.80;;;;;;;2.58;78.00;97476.77;105440;1267;111755;-70
2023/03/27 11:31:37;;;;;;;4.70;2.90;;;;;;;2.57;77.46;97483.33;105395;1267;99429;-71
2023/03/27 11:34:14;;;;;;;6.20;3.60;;;;;;;2.56;77.62;97490.71;105096;1255;108614;-70
2023/03/27 11:37:18;;;;;;;3.50;2.30;;;;;;;2.61;77.91;97498.54;105040;1265;97887;-69
2023/03/27 11:39:52;;;;;;;6.70;3.30;;;;;;;2.61;77.62;97499.02;105121;1264;99083;-69
2023/03/27 11:42:25;;;;;;;4.50;2.90;;;;;;;2.56;77.23;97507.74;105164;1266;112068;-70
2023/03/27 11:44:52;;;;;;;5.00;3.10;;;;;;;2.49;77.18;97512.41;105236;1266;99082;-69
2023/03/27 11:47:23;;;;;;;5.40;3.10;;;;;;;2.46;77.05;97523.27;105064;1257;107947;-69
2023/03/27 11:50:15;;;;;;;5.10;3.50;;;;;;;2.46;77.48;97528.90;105139;1256;97922;-69